Terminal Aerodrome Forecast
Issued by NWS

Home | Current Version | Previous Version | Text Only | Print | Product List | Glossary On
Versions: 1 2 3 4 5 6 7 8 9 10 11 12 13
000
FTUS46 KSEW 041302 AAA
TAFBFI
TAF AMD
KBFI 041302Z 0413/0512 15006KT P6SM SCT013 BKN100
      TEMPO 0413/0416 BKN013 BKN100
     FM041700 21005KT P6SM SCT025 SCT100
     FM042100 22007KT P6SM SCT250
     FM050600 18004KT P6SM BKN050=

USA.gov is the U.S. government's official web portal to all federal, state and local government web resources and services.